Time;durP1;ratioP1;P1;durP2;ratioP2;P2;SDS_P1;SDS_P2;PMS_P1;PMS_P2;Temp;Humidity;BMP_temperature;BMP_pressure;BME280_temperature;BME280_humidity;BME280_pressure;Samples;Min_cycle;Max_cycle;Signal;HPM_P1;HPM_P2
2023/12/10 00:00:17;;;;;;;1999.90;999.90;;;6.50;99.90;;;;;;5052585;28;20505;-77
2023/12/10 00:02:48;;;;;;;1999.90;999.90;;;6.80;99.90;;;;;;5047534;28;20461;-77
2023/12/10 00:05:15;;;;;;;1999.90;999.90;;;7.00;99.90;;;;;;5053763;28;20417;-77
2023/12/10 00:07:41;;;;;;;1999.90;999.90;;;7.30;99.90;;;;;;5050042;28;20428;-77
2023/12/10 00:10:08;;;;;;;1999.90;999.90;;;7.30;99.90;;;;;;5052861;28;20424;-77
2023/12/10 00:12:35;;;;;;;1999.90;999.90;;;7.40;99.90;;;;;;5057519;28;20443;-79
2023/12/10 00:15:03;;;;;;;1999.90;999.90;;;7.60;99.90;;;;;;5057120;28;20412;-73
2023/12/10 00:17:30;;;;;;;1999.90;999.90;;;7.50;99.90;;;;;;5052289;28;21262;-77
2023/12/10 00:19:58;;;;;;;1999.90;999.90;;;7.60;99.90;;;;;;5056481;28;20421;-77
2023/12/10 00:22:25;;;;;;;1999.90;999.90;;;7.60;99.90;;;;;;5057609;28;20409;-77
2023/12/10 00:24:51;;;;;;;1999.90;999.90;;;7.70;99.90;;;;;;5053868;28;20449;-74
2023/12/10 00:27:18;;;;;;;1999.90;999.90;;;7.70;99.90;;;;;;5053654;28;20800;-78
2023/12/10 00:29:45;;;;;;;1999.90;999.90;;;7.70;99.90;;;;;;5054366;28;20487;-75
2023/12/10 00:32:11;;;;;;;1999.90;999.90;;;7.70;99.90;;;;;;5055921;28;20531;-79
2023/12/10 00:34:38;;;;;;;1999.90;999.90;;;7.70;99.90;;;;;;5058490;28;21052;-81
2023/12/10 00:37:06;;;;;;;1999.90;999.90;;;7.70;99.90;;;;;;5054406;28;20416;-73
2023/12/10 00:39:33;;;;;;;1999.90;999.90;;;7.70;99.90;;;;;;5054652;28;20414;-79
2023/12/10 00:42:00;;;;;;;1999.90;999.90;;;7.70;99.90;;;;;;5052242;28;20433;-76
2023/12/10 00:44:26;;;;;;;1999.90;999.90;;;7.70;99.90;;;;;;5053006;28;20433;-75
2023/12/10 00:46:53;;;;;;;1999.90;999.90;;;7.80;99.90;;;;;;5058886;28;20413;-77
2023/12/10 00:49:20;;;;;;;1999.90;999.90;;;7.80;99.90;;;;;;5057735;28;20554;-78
2023/12/10 00:51:46;;;;;;;1999.90;999.90;;;7.80;99.90;;;;;;5058221;28;20425;-76
2023/12/10 00:54:14;;;;;;;1999.90;999.90;;;7.80;99.90;;;;;;5063633;28;20444;-77
2023/12/10 00:56:41;;;;;;;1999.90;999.90;;;7.90;99.90;;;;;;5062783;28;20413;-77
2023/12/10 00:59:08;;;;;;;1999.90;999.90;;;7.90;99.90;;;;;;5060613;28;20433;-76
2023/12/10 01:01:35;;;;;;;1999.90;999.90;;;8.00;99.90;;;;;;5060400;28;20947;-77
2023/12/10 01:04:01;;;;;;;1999.90;999.90;;;8.10;99.90;;;;;;5061354;28;20414;-78
2023/12/10 01:06:28;;;;;;;1999.90;999.90;;;8.10;99.90;;;;;;5061555;28;21009;-74
2023/12/10 01:08:55;;;;;;;1999.90;999.90;;;8.10;99.90;;;;;;5060630;28;20413;-82
2023/12/10 01:11:23;;;;;;;1999.90;999.90;;;8.10;99.90;;;;;;5056571;28;20433;-77
2023/12/10 01:13:50;;;;;;;1999.90;999.90;;;8.20;99.90;;;;;;5054699;28;20475;-72
2023/12/10 01:16:17;;;;;;;1999.90;999.90;;;8.10;99.90;;;;;;5060380;28;20413;-77
2023/12/10 01:18:44;;;;;;;1999.90;999.90;;;8.20;99.90;;;;;;5063566;28;20547;-77
2023/12/10 01:21:10;;;;;;;1999.90;999.90;;;8.20;99.90;;;;;;5059941;28;20440;-74
2023/12/10 01:23:37;;;;;;;1999.90;999.90;;;8.30;99.90;;;;;;5055392;28;20891;-77
2023/12/10 01:26:06;;;;;;;1999.90;999.90;;;8.30;99.90;;;;;;5057031;28;20415;-76
2023/12/10 01:28:34;;;;;;;1999.90;999.90;;;8.30;99.90;;;;;;5052556;28;20552;-74
2023/12/10 01:31:01;;;;;;;1999.90;999.90;;;8.30;99.90;;;;;;5057988;28;20418;-77
2023/12/10 01:33:27;;;;;;;1999.90;999.90;;;8.20;99.90;;;;;;5059766;28;20417;-78
2023/12/10 01:35:54;;;;;;;1999.90;999.90;;;8.30;99.90;;;;;;5059173;28;20413;-75
2023/12/10 01:38:20;;;;;;;1999.90;999.90;;;8.20;99.90;;;;;;5056104;28;20486;-80
2023/12/10 01:40:47;;;;;;;1999.90;999.90;;;8.30;99.90;;;;;;5054814;28;20418;-76
2023/12/10 01:43:17;;;;;;;1999.90;999.90;;;8.30;99.90;;;;;;5058127;28;20413;-72
2023/12/10 01:45:48;;;;;;;1999.90;999.90;;;8.30;99.90;;;;;;5055375;28;20421;-78
2023/12/10 01:48:16;;;;;;;1999.90;999.90;;;8.30;99.90;;;;;;5056387;28;20953;-78
2023/12/10 01:50:44;;;;;;;1999.90;999.90;;;8.40;99.90;;;;;;5055785;28;20470;-77
2023/12/10 01:53:11;;;;;;;1999.90;999.90;;;8.40;99.90;;;;;;5055896;28;20413;-77
2023/12/10 01:55:37;;;;;;;1999.90;999.90;;;8.40;99.90;;;;;;5056475;28;20417;-78
2023/12/10 01:58:05;;;;;;;1999.90;999.90;;;8.50;99.90;;;;;;5054594;28;20783;-76
2023/12/10 02:00:32;;;;;;;1999.90;999.90;;;8.60;99.90;;;;;;5058230;28;20441;-78
2023/12/10 02:03:02;;;;;;;1999.90;999.90;;;8.60;99.90;;;;;;5057800;28;20480;-78
2023/12/10 02:05:30;;;;;;;1999.90;999.90;;;8.60;99.90;;;;;;5055133;28;20410;-78
2023/12/10 02:07:56;;;;;;;1999.90;999.90;;;8.60;99.90;;;;;;5059471;28;20421;-79
2023/12/10 02:10:23;;;;;;;1999.90;999.90;;;8.70;99.90;;;;;;5052311;28;20919;-78
2023/12/10 02:12:52;;;;;;;1999.90;999.90;;;8.70;99.90;;;;;;5058546;28;20432;-76
2023/12/10 02:15:19;;;;;;;1999.90;999.90;;;8.60;99.90;;;;;;5056993;28;20417;-79
2023/12/10 02:17:46;;;;;;;1999.90;999.90;;;8.60;99.90;;;;;;5054757;28;20421;-76
2023/12/10 02:20:16;;;;;;;1999.90;999.90;;;8.50;99.90;;;;;;5054825;28;20429;-78
2023/12/10 02:22:49;;;;;;;1999.90;999.90;;;8.60;99.90;;;;;;5053534;28;20440;-77
2023/12/10 02:25:20;;;;;;;1999.90;999.90;;;8.60;99.90;;;;;;5049978;28;20443;-76
2023/12/10 02:27:49;;;;;;;1999.90;999.90;;;8.60;99.90;;;;;;5053831;28;20409;-79
2023/12/10 02:30:16;;;;;;;1999.90;999.90;;;8.60;99.90;;;;;;5049603;28;20952;-78
2023/12/10 02:32:44;;;;;;;1999.90;999.90;;;8.60;99.90;;;;;;5053605;28;20429;-77
2023/12/10 02:35:11;;;;;;;1999.90;999.90;;;8.60;99.90;;;;;;5052932;28;20437;-76
2023/12/10 02:37:38;;;;;;;1999.90;999.90;;;8.60;99.90;;;;;;5055766;28;20504;-79
2023/12/10 02:40:06;;;;;;;1999.90;999.90;;;8.60;99.90;;;;;;5055323;28;20467;-74
2023/12/10 02:42:33;;;;;;;1999.90;999.90;;;8.50;99.90;;;;;;5057886;28;20401;-78
2023/12/10 02:45:01;;;;;;;1999.90;999.90;;;8.40;99.90;;;;;;5055794;28;20725;-76
2023/12/10 02:47:27;;;;;;;1999.90;999.90;;;8.40;99.90;;;;;;5055292;28;20467;-76
2023/12/10 02:49:54;;;;;;;1999.90;999.90;;;8.50;99.90;;;;;;5054359;28;20433;-78
2023/12/10 02:52:22;;;;;;;1999.90;999.90;;;8.40;99.90;;;;;;5053475;28;20421;-77
2023/12/10 02:54:49;;;;;;;1999.90;999.90;;;8.40;99.90;;;;;;5052838;28;21011;-78
2023/12/10 02:57:15;;;;;;;1999.90;999.90;;;8.40;99.90;;;;;;5053782;28;20445;-75
2023/12/10 02:59:42;;;;;;;1999.90;999.90;;;8.40;99.90;;;;;;5053132;28;20413;-76
2023/12/10 03:02:10;;;;;;;1999.90;999.90;;;8.40;99.90;;;;;;5052913;28;20496;-78
2023/12/10 03:04:37;;;;;;;1999.90;999.90;;;8.40;99.90;;;;;;5051305;28;20424;-76
2023/12/10 03:07:04;;;;;;;1999.90;999.90;;;8.50;99.90;;;;;;5052078;28;20422;-76
2023/12/10 03:09:30;;;;;;;1999.90;999.90;;;8.50;99.90;;;;;;5052642;28;20470;-75
2023/12/10 03:11:57;;;;;;;1999.90;999.90;;;8.50;99.90;;;;;;5054812;28;20429;-77
2023/12/10 03:14:24;;;;;;;1999.90;999.90;;;8.50;99.90;;;;;;5055634;28;20413;-77
2023/12/10 03:16:51;;;;;;;1999.90;999.90;;;8.50;99.90;;;;;;5052108;28;20506;-80
2023/12/10 03:19:19;;;;;;;1999.90;999.90;;;8.50;99.90;;;;;;5057474;28;20455;-77
2023/12/10 03:21:45;;;;;;;1999.90;999.90;;;8.50;99.90;;;;;;5055082;28;20463;-75
2023/12/10 03:24:12;;;;;;;1999.90;999.90;;;8.40;99.90;;;;;;5056254;28;20887;-78
2023/12/10 03:26:39;;;;;;;1999.90;999.90;;;8.50;99.90;;;;;;5055233;28;20807;-80
2023/12/10 03:29:05;;;;;;;1999.90;999.90;;;8.50;99.90;;;;;;5052869;28;20413;-77
2023/12/10 03:31:32;;;;;;;1999.90;999.90;;;8.50;99.90;;;;;;5050040;28;21098;-78
2023/12/10 03:33:59;;;;;;;1999.90;999.90;;;8.60;99.90;;;;;;5054758;28;20419;-78
2023/12/10 03:36:27;;;;;;;1999.90;999.90;;;8.60;99.90;;;;;;5055062;28;20421;-78
2023/12/10 03:38:53;;;;;;;1999.90;999.90;;;8.60;99.90;;;;;;5053987;28;20896;-78
2023/12/10 03:41:20;;;;;;;1999.90;999.90;;;8.60;99.90;;;;;;5049958;28;20914;-78
2023/12/10 03:43:47;;;;;;;1999.90;999.90;;;8.60;99.90;;;;;;5050781;28;20413;-78
2023/12/10 03:46:13;;;;;;;1999.90;999.90;;;8.60;99.90;;;;;;5052109;28;20481;-76
2023/12/10 03:48:40;;;;;;;1999.90;999.90;;;8.60;99.90;;;;;;5057773;28;20827;-77
2023/12/10 03:51:07;;;;;;;1999.90;999.90;;;8.60;99.90;;;;;;5053584;28;20892;-78
2023/12/10 03:53:35;;;;;;;1999.90;999.90;;;8.60;99.90;;;;;;5054129;28;20842;-78
2023/12/10 03:56:02;;;;;;;1999.90;999.90;;;8.60;99.90;;;;;;5053704;28;20417;-79
2023/12/10 03:58:28;;;;;;;1999.90;999.90;;;8.50;99.90;;;;;;5054567;28;20803;-77
2023/12/10 04:00:55;;;;;;;1999.90;999.90;;;8.40;99.90;;;;;;5055582;28;20446;-78
2023/12/10 04:03:22;;;;;;;1999.90;999.90;;;8.50;99.90;;;;;;5051402;28;20417;-78
2023/12/10 04:05:48;;;;;;;1999.90;999.90;;;8.40;99.90;;;;;;5058395;28;20417;-79
2023/12/10 04:08:15;;;;;;;1999.90;999.90;;;8.40;99.90;;;;;;5058262;28;20472;-78
2023/12/10 04:10:43;;;;;;;1999.90;999.90;;;8.50;99.90;;;;;;5053990;28;20487;-75
2023/12/10 04:13:10;;;;;;;1999.90;999.90;;;8.50;99.90;;;;;;5052434;28;20455;-76
2023/12/10 04:15:36;;;;;;;1999.90;999.90;;;8.50;99.90;;;;;;5055901;28;20457;-76
2023/12/10 04:18:03;;;;;;;1999.90;999.90;;;8.50;99.90;;;;;;5056570;28;20421;-77
2023/12/10 04:20:30;;;;;;;1999.90;999.90;;;8.40;99.90;;;;;;5051777;28;20416;-77
2023/12/10 04:22:56;;;;;;;1999.90;999.90;;;8.40;99.90;;;;;;5059601;28;20896;-77
2023/12/10 04:25:23;;;;;;;1999.90;999.90;;;8.40;99.90;;;;;;5062300;28;20421;-77
2023/12/10 04:27:51;;;;;;;1999.90;999.90;;;8.40;99.90;;;;;;5061965;28;20899;-77
2023/12/10 04:30:19;;;;;;;1999.90;999.90;;;8.40;99.90;;;;;;5054546;28;20446;-79
2023/12/10 04:32:46;;;;;;;1999.90;999.90;;;8.30;99.90;;;;;;5060530;28;20437;-80
2023/12/10 04:35:13;;;;;;;1999.90;999.90;;;8.40;99.90;;;;;;5059180;28;20421;-77
2023/12/10 04:37:39;;;;;;;1999.90;999.90;;;8.30;99.90;;;;;;5057001;28;20413;-78
2023/12/10 04:40:07;;;;;;;1999.90;999.90;;;8.30;99.90;;;;;;5063356;28;20413;-78
2023/12/10 04:42:34;;;;;;;1999.90;999.90;;;8.40;99.90;;;;;;5064483;28;20470;-79
2023/12/10 04:45:01;;;;;;;1999.90;999.90;;;8.50;99.90;;;;;;5055156;28;20435;-80
2023/12/10 04:47:28;;;;;;;1999.90;999.90;;;8.50;99.90;;;;;;5061893;28;20571;-77
2023/12/10 04:49:55;;;;;;;1999.90;999.90;;;8.50;99.90;;;;;;5062035;28;20942;-77
2023/12/10 04:52:22;;;;;;;1999.90;999.90;;;8.60;99.90;;;;;;5061119;28;20460;-79
2023/12/10 04:54:48;;;;;;;1999.90;999.90;;;8.50;99.90;;;;;;5058861;28;20814;-77
2023/12/10 04:57:16;;;;;;;1999.90;999.90;;;8.50;99.90;;;;;;5057576;28;20417;-77
2023/12/10 04:59:43;;;;;;;1999.90;999.90;;;8.50;99.90;;;;;;5054916;28;20441;-78
2023/12/10 05:02:11;;;;;;;1999.90;999.90;;;8.50;99.90;;;;;;5058801;28;20410;-78
2023/12/10 05:04:38;;;;;;;1999.90;999.90;;;8.50;99.90;;;;;;5057310;28;20417;-76
2023/12/10 05:07:05;;;;;;;1999.90;999.90;;;8.50;99.90;;;;;;5056515;28;20412;-77
2023/12/10 05:09:32;;;;;;;1999.90;999.90;;;8.50;99.90;;;;;;5060043;28;20504;-77
2023/12/10 05:11:59;;;;;;;1999.90;999.90;;;8.40;99.90;;;;;;5056181;28;20429;-76
2023/12/10 05:14:26;;;;;;;1999.90;999.90;;;8.40;99.90;;;;;;5054097;28;20433;-79
2023/12/10 05:16:52;;;;;;;1999.90;999.90;;;8.40;99.90;;;;;;5052769;28;20421;-78
2023/12/10 05:19:20;;;;;;;1999.90;999.90;;;8.50;99.90;;;;;;5056254;28;20478;-78
2023/12/10 05:21:47;;;;;;;1999.90;999.90;;;8.60;99.90;;;;;;5055235;28;20429;-77
2023/12/10 05:24:14;;;;;;;1999.90;999.90;;;8.60;99.90;;;;;;5050690;28;20429;-77
2023/12/10 05:26:41;;;;;;;1999.90;999.90;;;8.60;99.90;;;;;;5053905;28;20511;-76
2023/12/10 05:29:07;;;;;;;1999.90;999.90;;;8.60;99.90;;;;;;5054008;28;20496;-78
2023/12/10 05:31:34;;;;;;;1999.90;999.90;;;8.60;99.90;;;;;;5057262;28;20429;-77
2023/12/10 05:34:01;;;;;;;1999.90;999.90;;;8.70;99.90;;;;;;5056429;28;20406;-79
2023/12/10 05:36:29;;;;;;;1999.90;999.90;;;8.70;99.90;;;;;;5055285;28;20474;-77
2023/12/10 05:38:55;;;;;;;1999.90;999.90;;;8.70;99.90;;;;;;5055562;28;20440;-78
2023/12/10 05:41:22;;;;;;;1999.90;999.90;;;8.70;99.90;;;;;;5054318;28;20814;-76
2023/12/10 05:43:49;;;;;;;1999.90;999.90;;;8.70;99.90;;;;;;5055393;28;21022;-76
2023/12/10 05:46:15;;;;;;;1999.90;999.90;;;8.70;99.90;;;;;;5059666;28;20421;-77
2023/12/10 05:48:42;;;;;;;1999.90;999.90;;;8.70;99.90;;;;;;5056070;28;20481;-76
2023/12/10 05:51:09;;;;;;;1999.90;999.90;;;8.70;99.90;;;;;;5058308;28;20422;-79
2023/12/10 05:53:37;;;;;;;1999.90;999.90;;;8.60;99.90;;;;;;5057026;28;20430;-78
2023/12/10 05:56:04;;;;;;;1999.90;999.90;;;8.60;99.90;;;;;;5056868;28;20501;-77
2023/12/10 05:58:31;;;;;;;1999.90;999.90;;;8.50;99.90;;;;;;5058341;28;20421;-77
2023/12/10 06:00:58;;;;;;;1999.90;999.90;;;8.40;99.90;;;;;;5060840;28;20467;-77
2023/12/10 06:03:25;;;;;;;1999.90;999.90;;;8.50;99.90;;;;;;5059986;28;20409;-77
2023/12/10 06:05:52;;;;;;;1999.90;999.90;;;8.50;99.90;;;;;;5049020;28;20429;-77
2023/12/10 06:08:19;;;;;;;1999.90;999.90;;;8.50;99.90;;;;;;5052430;28;20432;-77
2023/12/10 06:10:47;;;;;;;1999.90;999.90;;;8.50;99.90;;;;;;5053919;28;20425;-76
2023/12/10 06:13:13;;;;;;;1999.90;999.90;;;8.50;99.90;;;;;;5054083;28;20436;-77
2023/12/10 06:15:40;;;;;;;1999.90;999.90;;;8.40;99.90;;;;;;5053815;28;20413;-76
2023/12/10 06:18:07;;;;;;;1999.90;999.90;;;8.50;99.90;;;;;;5053527;28;20444;-77
2023/12/10 06:20:34;;;;;;;1999.90;999.90;;;8.50;99.90;;;;;;5052633;28;20439;-79
2023/12/10 06:23:00;;;;;;;1999.90;999.90;;;8.50;99.90;;;;;;5054114;28;20456;-76
2023/12/10 06:25:27;;;;;;;1999.90;999.90;;;8.60;99.90;;;;;;5053147;28;20424;-76
2023/12/10 06:27:56;;;;;;;1999.90;999.90;;;8.60;99.90;;;;;;5053797;28;20406;-76
2023/12/10 06:30:23;;;;;;;1999.90;999.90;;;8.50;99.90;;;;;;5054488;28;20921;-77
2023/12/10 06:32:50;;;;;;;1999.90;999.90;;;8.60;99.90;;;;;;5056046;28;20994;-78
2023/12/10 06:35:17;;;;;;;1999.90;999.90;;;8.50;99.90;;;;;;5055861;28;20428;-76
2023/12/10 06:37:44;;;;;;;1999.90;999.90;;;8.60;99.90;;;;;;5051173;28;20951;-78
2023/12/10 06:40:11;;;;;;;1999.90;999.90;;;8.60;99.90;;;;;;5054312;28;20448;-77
2023/12/10 06:42:38;;;;;;;1999.90;999.90;;;8.60;99.90;;;;;;5053791;28;20406;-72
2023/12/10 06:45:07;;;;;;;1999.90;999.90;;;8.60;99.90;;;;;;5054449;28;20456;-78
2023/12/10 06:47:34;;;;;;;1999.90;999.90;;;8.50;99.90;;;;;;5053693;28;20413;-77
2023/12/10 06:50:01;;;;;;;1999.90;999.90;;;8.60;99.90;;;;;;5056664;28;20459;-77
2023/12/10 06:52:28;;;;;;;1999.90;999.90;;;8.50;99.90;;;;;;5055126;28;20508;-77
2023/12/10 06:54:54;;;;;;;1999.90;999.90;;;8.50;99.90;;;;;;5054680;28;20413;-77
2023/12/10 06:57:21;;;;;;;1999.90;999.90;;;8.40;99.90;;;;;;5056414;28;20413;-76
2023/12/10 06:59:47;;;;;;;1999.90;999.90;;;8.40;99.90;;;;;;5059326;28;20474;-78
2023/12/10 07:02:15;;;;;;;1999.90;999.90;;;8.30;99.90;;;;;;5054974;28;20420;-78
2023/12/10 07:04:42;;;;;;;1999.90;999.90;;;8.30;99.90;;;;;;5048149;28;20429;-78
2023/12/10 07:07:09;;;;;;;1999.90;999.90;;;8.40;99.90;;;;;;5056199;28;20418;-77
2023/12/10 07:09:36;;;;;;;1999.90;999.90;;;8.40;99.90;;;;;;5056519;28;20409;-73
2023/12/10 07:12:03;;;;;;;1999.90;999.90;;;8.40;99.90;;;;;;5053055;28;20421;-76
2023/12/10 07:14:30;;;;;;;1999.90;999.90;;;8.50;99.90;;;;;;5052688;28;20421;-76
2023/12/10 07:16:57;;;;;;;1999.90;999.90;;;8.50;99.90;;;;;;5051372;28;20498;-76
2023/12/10 07:19:25;;;;;;;1999.90;999.90;;;8.40;99.90;;;;;;5051230;28;20433;-77
2023/12/10 07:21:52;;;;;;;1999.90;999.90;;;8.60;99.90;;;;;;5054547;28;20424;-77
2023/12/10 07:24:19;;;;;;;1999.90;999.90;;;8.60;99.90;;;;;;5055113;28;20413;-79
2023/12/10 07:26:46;;;;;;;1999.90;999.90;;;8.50;99.90;;;;;;5057204;28;20409;-77
2023/12/10 07:29:13;;;;;;;1999.90;999.90;;;8.50;99.90;;;;;;5055183;28;20418;-77
2023/12/10 07:31:39;;;;;;;1999.90;999.90;;;8.40;99.90;;;;;;5054229;28;20978;-77
2023/12/10 07:34:06;;;;;;;1999.90;999.90;;;8.40;99.90;;;;;;5053178;28;20915;-75
2023/12/10 07:36:34;;;;;;;1999.90;999.90;;;8.30;99.90;;;;;;5054841;28;20421;-77
2023/12/10 07:39:01;;;;;;;1999.90;999.90;;;8.40;99.90;;;;;;5056689;28;20424;-76
2023/12/10 07:41:28;;;;;;;1999.90;999.90;;;8.50;99.90;;;;;;5054877;28;20419;-74
2023/12/10 07:43:55;;;;;;;1999.90;999.90;;;8.50;99.90;;;;;;5052817;28;20426;-74
2023/12/10 07:46:21;;;;;;;1999.90;999.90;;;8.50;99.90;;;;;;5051127;28;20824;-77
2023/12/10 07:48:48;;;;;;;1999.90;999.90;;;8.30;99.90;;;;;;5050827;28;20481;-76
2023/12/10 07:51:14;;;;;;;1999.90;999.90;;;8.20;99.90;;;;;;5054818;28;20417;-79
2023/12/10 07:53:43;;;;;;;1999.90;999.90;;;8.30;99.90;;;;;;5055144;28;20437;-76
2023/12/10 07:56:10;;;;;;;1999.90;999.90;;;8.30;99.90;;;;;;5058179;28;20452;-77
2023/12/10 07:58:37;;;;;;;1999.90;999.90;;;8.10;99.90;;;;;;5059213;28;20496;-76
2023/12/10 08:01:04;;;;;;;1999.90;999.90;;;8.20;99.90;;;;;;5057588;28;20480;-78
2023/12/10 08:03:30;;;;;;;1999.90;999.90;;;8.10;99.90;;;;;;5052664;28;20888;-75
2023/12/10 08:05:57;;;;;;;1999.90;999.90;;;8.10;99.90;;;;;;5060023;28;20417;-76
2023/12/10 08:08:24;;;;;;;1999.90;999.90;;;8.10;99.90;;;;;;5064694;28;20972;-77
2023/12/10 08:10:52;;;;;;;1999.90;999.90;;;8.10;99.90;;;;;;5063616;28;20421;-77
2023/12/10 08:13:19;;;;;;;1999.90;999.90;;;8.00;99.90;;;;;;5063920;28;20429;-76
2023/12/10 08:15:45;;;;;;;1999.90;999.90;;;7.80;99.90;;;;;;5060244;28;20444;-77
2023/12/10 08:18:12;;;;;;;1999.90;999.90;;;7.90;99.90;;;;;;5063615;28;20960;-78
2023/12/10 08:20:39;;;;;;;1999.90;999.90;;;7.90;99.90;;;;;;5063438;28;20496;-77
2023/12/10 08:23:05;;;;;;;1999.90;999.90;;;7.90;99.90;;;;;;5063334;28;20409;-77
2023/12/10 08:25:32;;;;;;;1999.90;999.90;;;8.00;99.90;;;;;;5064013;28;20463;-77
2023/12/10 08:28:00;;;;;;;1999.90;999.90;;;7.90;99.90;;;;;;5064012;28;20417;-78
2023/12/10 08:30:27;;;;;;;1999.90;999.90;;;8.00;99.90;;;;;;5062653;28;20429;-77
2023/12/10 08:32:54;;;;;;;1999.90;999.90;;;8.00;99.90;;;;;;5060766;28;20429;-77
2023/12/10 08:35:21;;;;;;;1999.90;999.90;;;8.00;99.90;;;;;;5059386;28;20899;-77
2023/12/10 08:37:47;;;;;;;1999.90;999.90;;;8.00;99.90;;;;;;5057943;28;20833;-75
2023/12/10 08:40:14;;;;;;;1999.90;999.90;;;8.00;99.90;;;;;;5057717;28;20424;-77
2023/12/10 08:42:41;;;;;;;1999.90;999.90;;;8.00;99.90;;;;;;5061826;28;20441;-78
2023/12/10 08:45:11;;;;;;;1999.90;999.90;;;8.00;99.90;;;;;;5059969;28;20417;-78
2023/12/10 08:47:37;;;;;;;1999.90;999.90;;;8.00;99.90;;;;;;5054777;28;20437;-78
2023/12/10 08:50:05;;;;;;;1999.90;999.90;;;8.10;99.90;;;;;;5057057;28;20418;-74
2023/12/10 08:52:32;;;;;;;1999.90;999.90;;;8.10;99.90;;;;;;5056516;28;20441;-79
2023/12/10 08:54:58;;;;;;;1999.90;999.90;;;8.10;99.90;;;;;;5055914;28;20447;-78
2023/12/10 08:57:26;;;;;;;1999.90;999.90;;;8.10;99.90;;;;;;5059107;28;20819;-73
2023/12/10 08:59:52;;;;;;;1999.90;999.90;;;8.20;99.90;;;;;;5055482;28;20485;-77
2023/12/10 09:02:20;;;;;;;1999.90;999.90;;;8.10;99.90;;;;;;5056596;28;20409;-77
2023/12/10 09:04:47;;;;;;;1999.90;999.90;;;8.10;99.90;;;;;;5060505;28;20424;-75
2023/12/10 09:07:14;;;;;;;1999.90;999.90;;;8.20;99.90;;;;;;5053630;28;20453;-76
2023/12/10 09:09:40;;;;;;;1999.90;999.90;;;8.00;99.90;;;;;;5056443;28;20413;-74
2023/12/10 09:12:07;;;;;;;1999.90;999.90;;;8.10;99.90;;;;;;5054462;28;20409;-76
2023/12/10 09:14:36;;;;;;;1999.90;999.90;;;8.20;99.90;;;;;;5053770;28;20445;-74
2023/12/10 09:17:02;;;;;;;1999.90;999.90;;;8.30;99.90;;;;;;5048330;28;20428;-74
2023/12/10 09:19:31;;;;;;;1999.90;999.90;;;8.30;99.90;;;;;;5044414;28;20437;-72
2023/12/10 09:21:59;;;;;;;1999.90;999.90;;;8.20;99.90;;;;;;5054133;28;20417;-76
2023/12/10 09:24:26;;;;;;;1999.90;999.90;;;8.30;99.90;;;;;;5054681;28;20410;-77
2023/12/10 09:26:52;;;;;;;1999.90;999.90;;;8.30;99.90;;;;;;5054669;28;20775;-75
2023/12/10 09:29:21;;;;;;;1999.90;999.90;;;8.40;99.90;;;;;;5046093;28;20414;-76
2023/12/10 09:31:48;;;;;;;1999.90;999.90;;;8.40;99.90;;;;;;5050786;28;20445;-74
2023/12/10 09:34:15;;;;;;;1999.90;999.90;;;8.50;99.90;;;;;;5053068;28;20433;-75
2023/12/10 09:36:43;;;;;;;1999.90;999.90;;;8.60;99.90;;;;;;5053483;28;20413;-74
2023/12/10 09:39:10;;;;;;;1999.90;999.90;;;8.60;99.90;;;;;;5054226;28;20413;-76
2023/12/10 09:41:36;;;;;;;1999.90;999.90;;;8.50;99.90;;;;;;5053703;28;20409;-75
2023/12/10 09:44:03;;;;;;;1999.90;999.90;;;8.50;99.90;;;;;;5054122;28;20413;-75
2023/12/10 09:46:32;;;;;;;1999.90;999.90;;;8.50;99.90;;;;;;5056681;28;20435;-76
2023/12/10 09:49:00;;;;;;;1999.90;999.90;;;8.50;99.90;;;;;;5049472;28;20930;-72
2023/12/10 09:51:27;;;;;;;1999.90;999.90;;;8.50;99.90;;;;;;5056852;28;20421;-76
2023/12/10 09:53:55;;;;;;;1999.90;999.90;;;8.50;99.90;;;;;;5046292;28;20907;-77
2023/12/10 09:56:22;;;;;;;1999.90;999.90;;;8.50;99.90;;;;;;5054594;28;20429;-74
2023/12/10 09:58:48;;;;;;;1999.90;999.90;;;8.50;99.90;;;;;;5050813;28;20471;-72
2023/12/10 10:01:15;;;;;;;1999.90;999.90;;;8.60;99.90;;;;;;5050203;28;20579;-75
2023/12/10 10:03:41;;;;;;;1999.90;999.90;;;8.60;99.90;;;;;;5047505;28;20961;-75
2023/12/10 10:06:09;;;;;;;1999.90;999.90;;;8.70;99.90;;;;;;5052874;28;20424;-76
2023/12/10 10:08:36;;;;;;;1999.90;999.90;;;8.80;99.90;;;;;;5046179;28;20465;-76
2023/12/10 10:11:04;;;;;;;1999.90;999.90;;;8.70;99.90;;;;;;5036927;28;20781;-76
2023/12/10 10:13:31;;;;;;;1999.90;999.90;;;8.80;99.90;;;;;;5045876;28;20425;-75
2023/12/10 10:15:58;;;;;;;1999.90;999.90;;;8.80;99.90;;;;;;5052416;28;20547;-76
2023/12/10 10:18:26;;;;;;;1999.90;999.90;;;9.00;99.90;;;;;;5049266;28;20413;-78
2023/12/10 10:20:53;;;;;;;1999.90;999.90;;;8.90;99.90;;;;;;5048242;28;20421;-75
2023/12/10 10:23:22;;;;;;;1999.90;999.90;;;8.90;99.90;;;;;;5052408;28;20421;-76
2023/12/10 10:25:48;;;;;;;1999.90;999.90;;;9.00;99.90;;;;;;5052061;28;20409;-75
2023/12/10 10:28:17;;;;;;;1999.90;999.90;;;9.00;99.90;;;;;;5056427;28;20417;-78
2023/12/10 10:30:44;;;;;;;1999.90;999.90;;;9.00;99.90;;;;;;5054882;28;20413;-75
2023/12/10 10:33:12;;;;;;;1999.90;999.90;;;9.20;99.90;;;;;;5046969;28;20891;-75
2023/12/10 10:35:39;;;;;;;1999.90;999.90;;;9.20;99.90;;;;;;5051862;28;20794;-74
2023/12/10 10:38:06;;;;;;;1999.90;999.90;;;9.30;99.90;;;;;;5056488;28;20420;-77
2023/12/10 10:40:33;;;;;;;1999.90;999.90;;;9.30;99.90;;;;;;5056895;28;20413;-76
2023/12/10 10:42:59;;;;;;;1999.90;999.90;;;9.40;99.90;;;;;;5046306;28;20413;-78
2023/12/10 10:45:27;;;;;;;1999.90;999.90;;;9.30;99.90;;;;;;5043237;28;20429;-75
2023/12/10 10:47:54;;;;;;;1999.90;999.90;;;9.50;99.90;;;;;;5048485;28;20429;-77
2023/12/10 10:50:21;;;;;;;1999.90;999.90;;;9.50;99.90;;;;;;5045815;28;20522;-73
2023/12/10 10:52:49;;;;;;;1999.90;999.90;;;9.50;99.90;;;;;;5051134;28;20452;-78
2023/12/10 10:55:18;;;;;;;1999.90;999.90;;;9.40;99.90;;;;;;5048499;28;20429;-79
2023/12/10 10:57:45;;;;;;;1999.90;999.90;;;9.40;99.90;;;;;;5040116;28;20881;-75
2023/12/10 11:00:35;;;;;;;1999.90;999.90;;;9.40;99.90;;;;;;5050548;28;20438;-76
2023/12/10 11:03:04;;;;;;;1999.90;999.90;;;9.40;99.90;;;;;;5051718;28;20453;-75
2023/12/10 11:05:32;;;;;;;1999.90;999.90;;;9.50;99.90;;;;;;5046545;28;20427;-79
2023/12/10 11:07:59;;;;;;;1999.90;999.90;;;9.40;99.90;;;;;;5047290;28;20501;-78
2023/12/10 11:10:26;;;;;;;1999.90;999.90;;;9.50;99.90;;;;;;5052875;28;20416;-77
2023/12/10 11:12:54;;;;;;;1999.90;999.90;;;9.50;99.90;;;;;;5047601;28;20432;-77
2023/12/10 11:15:24;;;;;;;1999.90;999.90;;;9.60;99.90;;;;;;5044257;28;20425;-74
2023/12/10 11:17:53;;;;;;;1999.90;999.90;;;9.70;99.90;;;;;;5044633;28;20513;-74
2023/12/10 11:20:30;;;;;;;1999.90;999.90;;;9.70;99.90;;;;;;5053867;28;20436;-71
2023/12/10 11:22:57;;;;;;;1999.90;999.90;;;9.70;99.90;;;;;;5055011;28;20413;-76
2023/12/10 11:25:24;;;;;;;1999.90;999.90;;;9.60;99.90;;;;;;5050140;28;20896;-76
2023/12/10 11:27:51;;;;;;;1999.90;999.90;;;9.60;99.90;;;;;;5051798;28;20425;-76
2023/12/10 11:30:18;;;;;;;1999.90;999.90;;;9.50;99.90;;;;;;5052711;28;20895;-77
2023/12/10 11:32:44;;;;;;;1999.90;999.90;;;9.30;99.90;;;;;;5055524;28;20788;-77
2023/12/10 11:35:14;;;;;;;1999.90;999.90;;;9.40;99.90;;;;;;5048617;28;20429;-76
2023/12/10 11:37:41;;;;;;;1999.90;999.90;;;9.40;99.90;;;;;;5050453;28;20421;-77
2023/12/10 11:40:09;;;;;;;1999.90;999.90;;;9.30;99.90;;;;;;5049595;28;20769;-74
2023/12/10 11:42:36;;;;;;;1999.90;999.90;;;9.20;99.90;;;;;;5044195;28;20504;-76
2023/12/10 11:45:04;;;;;;;1999.90;999.90;;;9.30;99.90;;;;;;5045803;28;20440;-75
2023/12/10 11:47:31;;;;;;;1999.90;999.90;;;9.30;99.90;;;;;;5044493;28;20809;-75
2023/12/10 11:49:58;;;;;;;1999.90;999.90;;;9.40;99.90;;;;;;5038330;28;20433;-76
2023/12/10 11:52:26;;;;;;;1999.90;999.90;;;9.50;99.90;;;;;;5045216;28;20429;-74
2023/12/10 11:54:53;;;;;;;1999.90;999.90;;;9.70;99.90;;;;;;5047899;28;21117;-77
2023/12/10 11:57:20;;;;;;;1999.90;999.90;;;9.80;99.90;;;;;;5042413;28;20418;-75
2023/12/10 11:59:48;;;;;;;1999.90;999.90;;;10.00;99.90;;;;;;5043920;28;20440;-76
2023/12/10 12:02:15;;;;;;;1999.90;999.90;;;10.10;99.90;;;;;;5038036;28;20421;-76
2023/12/10 12:04:42;;;;;;;1999.90;999.90;;;10.20;99.90;;;;;;5044543;28;20427;-74
2023/12/10 12:07:23;;;;;;;1999.90;999.90;;;10.20;99.90;;;;;;5047588;28;20436;-79